Time;durP1;ratioP1;P1;durP2;ratioP2;P2;SDS_P1;SDS_P2;PMS_P1;PMS_P2;Temp;Humidity;BMP_temperature;BMP_pressure;BME280_temperature;BME280_humidity;BME280_pressure;Samples;Min_cycle;Max_cycle;Signal;HPM_P1;HPM_P2
2021/01/31 00:00:55;;;;;;;;;;;24.10;44.00;;;;;;1552207;75;714;-60
2021/01/31 00:02:57;;;;;;;;;;;24.20;43.90;;;;;;1548388;75;711;-60
2021/01/31 00:04:59;;;;;;;;;;;24.10;43.90;;;;;;1552727;75;705;-60
2021/01/31 00:07:01;;;;;;;;;;;24.10;43.90;;;;;;1555509;75;1913;-61
2021/01/31 00:09:03;;;;;;;;;;;24.10;44.00;;;;;;1550715;75;1133;-60
2021/01/31 00:11:05;;;;;;;;;;;24.10;44.00;;;;;;1552818;75;703;-60
2021/01/31 00:13:07;;;;;;;;;;;24.10;44.00;;;;;;1552373;75;725;-60
2021/01/31 00:15:09;;;;;;;;;;;24.10;43.90;;;;;;1552571;75;635;-60
2021/01/31 00:17:11;;;;;;;;;;;24.10;43.90;;;;;;1549841;75;703;-61
2021/01/31 00:19:13;;;;;;;;;;;24.20;43.90;;;;;;1557916;74;1022;-60
2021/01/31 00:21:15;;;;;;;;;;;24.20;43.90;;;;;;1567910;75;745;-60
2021/01/31 00:23:17;;;;;;;;;;;24.20;44.00;;;;;;1568299;74;768;-61
2021/01/31 00:25:19;;;;;;;;;;;24.10;44.10;;;;;;1564408;75;722;-60
2021/01/31 00:27:26;;;;;;;;;;;24.10;44.10;;;;;;1566058;74;1937;-60
2021/01/31 00:29:28;;;;;;;;;;;24.10;44.10;;;;;;1568108;74;900;-60
2021/01/31 00:31:30;;;;;;;;;;;24.20;44.10;;;;;;1568013;74;768;-60
2021/01/31 00:33:32;;;;;;;;;;;24.10;44.10;;;;;;1565751;74;779;-60
2021/01/31 00:35:37;;;;;;;;;;;24.10;44.10;;;;;;1569446;74;716;-60
2021/01/31 00:37:38;;;;;;;;;;;24.10;44.20;;;;;;1562113;74;1662;-60
2021/01/31 00:39:40;;;;;;;;;;;24.10;44.20;;;;;;1568108;74;704;-60
2021/01/31 00:41:42;;;;;;;;;;;24.10;44.20;;;;;;1568277;74;669;-60
2021/01/31 00:43:44;;;;;;;;;;;24.10;44.20;;;;;;1568569;74;693;-59
2021/01/31 00:45:46;;;;;;;;;;;24.10;44.20;;;;;;1566835;76;771;-59
2021/01/31 00:47:48;;;;;;;;;;;24.20;44.20;;;;;;1568656;74;1925;-60
2021/01/31 00:49:50;;;;;;;;;;;24.20;44.20;;;;;;1571734;74;706;-60
2021/01/31 00:51:52;;;;;;;;;;;24.10;44.40;;;;;;1573445;74;727;-60
2021/01/31 00:53:54;;;;;;;;;;;24.10;44.30;;;;;;1567159;75;693;-61
2021/01/31 00:55:56;;;;;;;;;;;24.10;44.30;;;;;;1566225;74;656;-61
2021/01/31 00:57:57;;;;;;;;;;;24.20;44.20;;;;;;1568240;74;1137;-60
2021/01/31 00:59:59;;;;;;;;;;;24.20;44.30;;;;;;1564874;74;735;-60
2021/01/31 01:02:03;;;;;;;;;;;24.20;44.30;;;;;;1568275;74;701;-60
2021/01/31 01:04:05;;;;;;;;;;;24.20;44.30;;;;;;1565662;74;1688;-59
2021/01/31 01:06:07;;;;;;;;;;;24.10;44.40;;;;;;1572023;74;1938;-60
2021/01/31 01:08:08;;;;;;;;;;;24.10;44.70;;;;;;1568001;74;1412;-61
2021/01/31 01:10:11;;;;;;;;;;;24.10;44.60;;;;;;1568088;74;740;-60
2021/01/31 01:12:13;;;;;;;;;;;24.10;44.60;;;;;;1567766;74;787;-60
2021/01/31 01:14:15;;;;;;;;;;;24.10;44.80;;;;;;1572034;74;742;-60
2021/01/31 01:16:17;;;;;;;;;;;24.10;45.10;;;;;;1568437;74;783;-60
2021/01/31 01:18:18;;;;;;;;;;;24.10;44.90;;;;;;1563628;74;1132;-60
2021/01/31 01:20:20;;;;;;;;;;;24.10;45.00;;;;;;1556818;76;1108;-60
2021/01/31 01:22:22;;;;;;;;;;;24.10;44.90;;;;;;1550586;75;737;-60
2021/01/31 01:24:24;;;;;;;;;;;24.10;45.40;;;;;;1549106;75;945;-60
2021/01/31 01:26:30;;;;;;;;;;;24.00;44.90;;;;;;1548275;75;1924;-60
2021/01/31 01:28:32;;;;;;;;;;;24.00;45.50;;;;;;1552203;75;1495;-60
2021/01/31 01:30:34;;;;;;;;;;;24.00;45.50;;;;;;1550172;76;737;-61
2021/01/31 01:32:37;;;;;;;;;;;24.00;45.20;;;;;;1552553;75;735;-61
2021/01/31 01:34:42;;;;;;;;;;;24.00;45.10;;;;;;1549014;75;750;-61
2021/01/31 01:36:43;;;;;;;;;;;24.00;45.10;;;;;;1552985;75;1422;-61
2021/01/31 01:38:45;;;;;;;;;;;24.00;44.90;;;;;;1551881;75;1118;-60
2021/01/31 01:40:46;;;;;;;;;;;24.00;45.10;;;;;;1551410;75;639;-59
2021/01/31 01:42:49;;;;;;;;;;;24.00;45.00;;;;;;1549222;75;715;-60
2021/01/31 01:44:51;;;;;;;;;;;24.10;45.20;;;;;;1552262;75;713;-60
2021/01/31 01:46:53;;;;;;;;;;;24.00;45.00;;;;;;1551691;75;1923;-60
2021/01/31 01:48:56;;;;;;;;;;;24.00;45.00;;;;;;1553293;75;1147;-59
2021/01/31 01:50:57;;;;;;;;;;;24.10;45.10;;;;;;1551554;75;735;-59
2021/01/31 01:52:59;;;;;;;;;;;24.10;45.10;;;;;;1549625;75;788;-59
2021/01/31 01:55:03;;;;;;;;;;;24.00;45.00;;;;;;1550211;76;725;-60
2021/01/31 01:57:09;;;;;;;;;;;24.10;45.20;;;;;;1537500;76;2199;-59
2021/01/31 01:59:11;;;;;;;;;;;24.00;45.00;;;;;;1548914;75;1071;-59
2021/01/31 02:01:13;;;;;;;;;;;24.10;45.10;;;;;;1553018;75;747;-60
2021/01/31 02:03:18;;;;;;;;;;;24.00;45.00;;;;;;1546338;75;724;-59
2021/01/31 02:05:20;;;;;;;;;;;24.10;45.20;;;;;;1553274;75;676;-61
2021/01/31 02:07:22;;;;;;;;;;;24.10;45.00;;;;;;1554793;75;1929;-59
2021/01/31 02:09:24;;;;;;;;;;;24.10;44.90;;;;;;1555804;75;751;-59
2021/01/31 02:11:27;;;;;;;;;;;24.00;45.00;;;;;;1547506;75;701;-60
2021/01/31 02:13:29;;;;;;;;;;;24.00;45.00;;;;;;1557228;75;766;-60
2021/01/31 02:15:31;;;;;;;;;;;24.00;45.10;;;;;;1548874;75;728;-60
2021/01/31 02:17:37;;;;;;;;;;;24.00;45.20;;;;;;1552370;75;1167;-59
2021/01/31 02:19:44;;;;;;;;;;;24.00;45.30;;;;;;1553765;76;1110;-59
2021/01/31 02:22:03;;;;;;;;;;;23.90;45.20;;;;;;1565064;75;686;-59
2021/01/31 02:24:07;;;;;;;;;;;24.00;45.10;;;;;;1564086;75;694;-60
2021/01/31 02:26:13;;;;;;;;;;;24.00;45.10;;;;;;1555123;74;1102;-60
2021/01/31 02:28:29;;;;;;;;;;;24.00;45.10;;;;;;1562240;75;1919;-60
2021/01/31 02:30:32;;;;;;;;;;;24.00;45.10;;;;;;1558585;75;1455;-60
2021/01/31 02:32:52;;;;;;;;;;;24.00;45.10;;;;;;1561451;75;646;-60
2021/01/31 02:34:56;;;;;;;;;;;24.00;45.10;;;;;;1548449;75;728;-60
2021/01/31 02:37:06;;;;;;;;;;;24.00;45.00;;;;;;1560121;74;1440;-61
2021/01/31 02:39:09;;;;;;;;;;;24.00;45.10;;;;;;1561452;75;1101;-60
2021/01/31 02:41:19;;;;;;;;;;;24.00;45.20;;;;;;1561834;74;685;-61
2021/01/31 02:43:22;;;;;;;;;;;24.00;45.10;;;;;;1561059;75;1726;-61
2021/01/31 02:45:25;;;;;;;;;;;24.00;45.10;;;;;;1562072;74;1768;-61
2021/01/31 02:47:27;;;;;;;;;;;24.00;45.10;;;;;;1559842;74;1943;-60
2021/01/31 02:49:33;;;;;;;;;;;24.00;45.10;;;;;;1558679;74;645;-61
2021/01/31 02:51:39;;;;;;;;;;;24.10;45.30;;;;;;1563615;74;794;-61
2021/01/31 02:53:42;;;;;;;;;;;24.00;45.10;;;;;;1561880;74;1729;-60
2021/01/31 02:55:48;;;;;;;;;;;24.10;45.10;;;;;;1562810;74;686;-60
2021/01/31 02:57:52;;;;;;;;;;;24.10;45.10;;;;;;1555667;74;1143;-60
2021/01/31 02:59:55;;;;;;;;;;;24.00;45.00;;;;;;1556040;74;893;-60
2021/01/31 03:02:08;;;;;;;;;;;24.10;45.00;;;;;;1564036;75;680;-60
2021/01/31 03:04:11;;;;;;;;;;;24.10;45.10;;;;;;1567907;74;776;-60
2021/01/31 03:06:14;;;;;;;;;;;24.10;45.20;;;;;;1551917;74;730;-60
2021/01/31 03:08:18;;;;;;;;;;;24.00;45.00;;;;;;1564081;74;1939;-60
2021/01/31 03:10:33;;;;;;;;;;;24.00;45.00;;;;;;1566526;74;788;-60
2021/01/31 03:12:37;;;;;;;;;;;24.00;45.00;;;;;;1574138;74;1756;-60
2021/01/31 03:14:40;;;;;;;;;;;24.00;45.20;;;;;;1561532;74;721;-60
2021/01/31 03:16:43;;;;;;;;;;;24.00;45.20;;;;;;1557731;74;1878;-60
2021/01/31 03:18:53;;;;;;;;;;;24.00;45.10;;;;;;1561235;75;1162;-60
2021/01/31 03:20:56;;;;;;;;;;;24.00;45.00;;;;;;1556528;75;1735;-60
2021/01/31 03:23:06;;;;;;;;;;;24.00;45.00;;;;;;1560094;75;1368;-59
2021/01/31 03:25:09;;;;;;;;;;;24.10;45.00;;;;;;1561897;75;730;-60
2021/01/31 03:27:16;;;;;;;;;;;24.10;45.00;;;;;;1550126;75;1924;-59
2021/01/31 03:29:17;;;;;;;;;;;24.00;44.90;;;;;;1555978;75;1129;-59
2021/01/31 03:31:20;;;;;;;;;;;24.10;45.00;;;;;;1556114;75;690;-59
2021/01/31 03:33:23;;;;;;;;;;;24.10;45.00;;;;;;1552272;75;760;-60
2021/01/31 03:35:29;;;;;;;;;;;24.10;45.00;;;;;;1552141;75;777;-60
2021/01/31 03:37:35;;;;;;;;;;;24.10;45.10;;;;;;1555282;75;1133;-60
2021/01/31 03:39:37;;;;;;;;;;;24.20;45.10;;;;;;1545122;75;1712;-60
2021/01/31 03:41:39;;;;;;;;;;;24.10;45.10;;;;;;1524763;76;661;-60
2021/01/31 03:43:41;;;;;;;;;;;24.10;45.20;;;;;;1555691;75;733;-60
2021/01/31 03:45:59;;;;;;;;;;;24.10;45.20;;;;;;1542906;75;679;-60
2021/01/31 03:48:12;;;;;;;;;;;24.10;45.20;;;;;;1548460;75;1921;-60
2021/01/31 03:50:14;;;;;;;;;;;24.00;45.10;;;;;;1542068;75;1831;-59
2021/01/31 03:52:16;;;;;;;;;;;24.10;45.50;;;;;;1553059;75;747;-60
2021/01/31 03:54:18;;;;;;;;;;;24.00;45.40;;;;;;1561705;75;679;-59
2021/01/31 03:56:21;;;;;;;;;;;24.00;45.60;;;;;;1551193;75;728;-60
2021/01/31 03:58:23;;;;;;;;;;;24.00;45.70;;;;;;1550094;75;1164;-60
2021/01/31 04:00:26;;;;;;;;;;;24.00;45.70;;;;;;1555229;75;733;-60
2021/01/31 04:02:33;;;;;;;;;;;24.00;45.90;;;;;;1549986;75;1768;-59
2021/01/31 04:04:38;;;;;;;;;;;23.90;46.00;;;;;;1552221;75;750;-60
2021/01/31 04:06:40;;;;;;;;;;;23.90;46.20;;;;;;1573361;75;709;-60
2021/01/31 04:08:42;;;;;;;;;;;23.80;46.20;;;;;;1549798;75;1927;-60
2021/01/31 04:10:44;;;;;;;;;;;23.80;46.40;;;;;;1549474;75;743;-61
2021/01/31 04:12:47;;;;;;;;;;;23.80;46.40;;;;;;1547613;76;702;-60
2021/01/31 04:14:51;;;;;;;;;;;23.80;46.70;;;;;;1552117;76;1622;-60
2021/01/31 04:16:52;;;;;;;;;;;23.70;46.80;;;;;;1553253;75;674;-61
2021/01/31 04:18:54;;;;;;;;;;;23.70;46.90;;;;;;1549715;75;1079;-61
2021/01/31 04:20:56;;;;;;;;;;;23.70;46.90;;;;;;1553419;75;1147;-61
2021/01/31 04:22:58;;;;;;;;;;;23.60;46.80;;;;;;1554042;74;677;-61
2021/01/31 04:25:00;;;;;;;;;;;23.60;47.10;;;;;;1548643;75;719;-61
2021/01/31 04:27:02;;;;;;;;;;;23.70;47.20;;;;;;1548183;75;731;-60
2021/01/31 04:29:04;;;;;;;;;;;23.60;47.10;;;;;;1549840;75;1938;-60
2021/01/31 04:31:06;;;;;;;;;;;23.60;46.90;;;;;;1552229;75;715;-60
2021/01/31 04:33:08;;;;;;;;;;;23.70;46.80;;;;;;1558848;75;745;-60
2021/01/31 04:35:10;;;;;;;;;;;23.70;46.90;;;;;;1554360;75;733;-61
2021/01/31 04:37:12;;;;;;;;;;;23.80;46.70;;;;;;1548216;75;727;-60
2021/01/31 04:39:14;;;;;;;;;;;23.90;46.50;;;;;;1545424;75;1079;-60
2021/01/31 04:41:16;;;;;;;;;;;23.90;46.40;;;;;;1548714;75;754;-60
2021/01/31 04:43:18;;;;;;;;;;;23.80;46.40;;;;;;1553132;76;724;-60
2021/01/31 04:45:20;;;;;;;;;;;23.80;46.60;;;;;;1540267;75;687;-60
2021/01/31 04:47:23;;;;;;;;;;;23.70;46.60;;;;;;1552596;75;1933;-61
2021/01/31 04:49:29;;;;;;;;;;;23.80;46.70;;;;;;1532768;75;1732;-61
2021/01/31 04:51:36;;;;;;;;;;;23.80;46.60;;;;;;1552644;75;707;-61
2021/01/31 04:53:39;;;;;;;;;;;23.90;46.80;;;;;;1551626;75;696;-61
2021/01/31 04:55:52;;;;;;;;;;;23.80;46.70;;;;;;1550018;76;698;-61
2021/01/31 04:57:55;;;;;;;;;;;23.70;46.60;;;;;;1548767;75;1169;-61
2021/01/31 04:59:57;;;;;;;;;;;23.80;46.80;;;;;;1547435;75;1989;-61
2021/01/31 05:02:12;;;;;;;;;;;23.70;46.80;;;;;;1550204;75;595;-61
2021/01/31 05:04:15;;;;;;;;;;;23.70;46.80;;;;;;1544766;75;723;-60
2021/01/31 05:06:17;;;;;;;;;;;23.80;46.80;;;;;;1550400;75;711;-61
2021/01/31 05:08:23;;;;;;;;;;;23.70;46.80;;;;;;1545189;75;1948;-61
2021/01/31 05:10:25;;;;;;;;;;;23.70;46.80;;;;;;1545527;75;773;-60
2021/01/31 05:12:43;;;;;;;;;;;23.70;46.70;;;;;;1562478;75;756;-60
2021/01/31 05:14:46;;;;;;;;;;;23.80;46.70;;;;;;1551868;75;684;-61
2021/01/31 05:16:49;;;;;;;;;;;23.80;46.70;;;;;;1552207;75;717;-60
2021/01/31 05:19:01;;;;;;;;;;;23.80;46.60;;;;;;1539034;75;1091;-61
2021/01/31 05:21:07;;;;;;;;;;;23.70;46.60;;;;;;1557098;75;1115;-61
2021/01/31 05:23:09;;;;;;;;;;;23.70;46.70;;;;;;1561431;74;690;-61
2021/01/31 05:25:13;;;;;;;;;;;23.70;46.60;;;;;;1562390;74;767;-60
2021/01/31 05:27:15;;;;;;;;;;;23.80;46.60;;;;;;1557134;75;849;-60
2021/01/31 05:29:17;;;;;;;;;;;23.80;46.70;;;;;;1538488;76;1939;-60
2021/01/31 05:31:19;;;;;;;;;;;23.70;46.70;;;;;;1569923;74;690;-60
2021/01/31 05:33:24;;;;;;;;;;;23.70;46.70;;;;;;1567145;74;768;-60
2021/01/31 05:35:26;;;;;;;;;;;23.80;46.70;;;;;;1569187;74;870;-60
2021/01/31 05:37:29;;;;;;;;;;;23.80;46.70;;;;;;1555874;74;1138;-60
2021/01/31 05:39:38;;;;;;;;;;;23.80;46.70;;;;;;1562543;74;680;-61
2021/01/31 05:41:46;;;;;;;;;;;23.80;46.60;;;;;;1562997;74;696;-61
2021/01/31 05:43:50;;;;;;;;;;;23.90;46.50;;;;;;1560616;75;759;-61
2021/01/31 05:45:51;;;;;;;;;;;23.90;46.40;;;;;;1562604;75;1709;-60
2021/01/31 05:47:53;;;;;;;;;;;23.90;46.50;;;;;;1561013;74;1938;-60
2021/01/31 05:49:55;;;;;;;;;;;23.90;46.30;;;;;;1563175;74;652;-59
2021/01/31 05:51:57;;;;;;;;;;;23.90;46.30;;;;;;1563154;74;723;-60
2021/01/31 05:54:01;;;;;;;;;;;23.90;46.20;;;;;;1563162;75;768;-60
2021/01/31 05:56:26;;;;;;;;;;;23.90;46.20;;;;;;1551977;74;1836;-60
2021/01/31 05:58:25;;;;;;;;;;;23.90;46.30;;;;;;1558724;74;1452;-60
2021/01/31 06:00:31;;;;;;;;;;;23.90;46.30;;;;;;1563321;74;720;-60
2021/01/31 06:02:33;;;;;;;;;;;24.00;46.40;;;;;;1563315;74;725;-60
2021/01/31 06:04:35;;;;;;;;;;;23.80;46.50;;;;;;1561249;74;774;-61
2021/01/31 06:06:37;;;;;;;;;;;23.90;46.70;;;;;;1561556;75;714;-61
2021/01/31 06:08:40;;;;;;;;;;;23.90;46.50;;;;;;1557833;74;1959;-61
2021/01/31 06:10:42;;;;;;;;;;;23.90;46.30;;;;;;1562442;75;706;-60
2021/01/31 06:12:45;;;;;;;;;;;23.90;46.20;;;;;;1540083;76;717;-60
2021/01/31 06:15:05;;;;;;;;;;;23.90;46.00;;;;;;1558516;74;771;-60
2021/01/31 06:17:08;;;;;;;;;;;23.90;45.90;;;;;;1563574;74;700;-60
2021/01/31 06:19:27;;;;;;;;;;;24.00;45.80;;;;;;1563582;74;1152;-60
2021/01/31 06:21:42;;;;;;;;;;;24.00;45.80;;;;;;1563226;74;740;-60
2021/01/31 06:23:53;;;;;;;;;;;24.00;45.70;;;;;;1559325;74;685;-60
2021/01/31 06:25:55;;;;;;;;;;;24.00;45.70;;;;;;1562151;74;948;-60
2021/01/31 06:27:58;;;;;;;;;;;24.00;45.70;;;;;;1562655;76;1948;-60
2021/01/31 06:30:11;;;;;;;;;;;24.00;45.80;;;;;;1564206;74;711;-59
2021/01/31 06:32:20;;;;;;;;;;;23.90;45.70;;;;;;1563625;74;842;-59
2021/01/31 06:34:22;;;;;;;;;;;24.00;45.50;;;;;;1558935;74;701;-60
2021/01/31 06:36:38;;;;;;;;;;;24.00;45.60;;;;;;1563237;74;706;-60
2021/01/31 06:38:44;;;;;;;;;;;24.00;45.50;;;;;;1563022;74;1151;-60
2021/01/31 06:40:57;;;;;;;;;;;24.00;45.50;;;;;;1565619;74;790;-60
2021/01/31 06:43:14;;;;;;;;;;;24.00;45.50;;;;;;1555533;75;1816;-60
2021/01/31 06:45:17;;;;;;;;;;;24.00;45.50;;;;;;1561726;74;1106;-60
2021/01/31 06:47:24;;;;;;;;;;;24.00;45.60;;;;;;1562809;74;1862;-60
2021/01/31 06:49:27;;;;;;;;;;;24.00;45.50;;;;;;1562191;74;1929;-59
2021/01/31 06:51:49;;;;;;;;;;;24.00;45.50;;;;;;1558340;75;719;-60
2021/01/31 06:53:55;;;;;;;;;;;24.00;45.50;;;;;;1561019;74;1712;-60
2021/01/31 06:55:59;;;;;;;;;;;24.00;45.50;;;;;;1559895;74;2178;-60
2021/01/31 06:58:15;;;;;;;;;;;23.90;45.50;;;;;;1562968;74;2015;-60
2021/01/31 07:00:18;;;;;;;;;;;24.00;45.60;;;;;;1562009;74;1675;-59
2021/01/31 07:02:22;;;;;;;;;;;23.90;45.50;;;;;;1551679;74;1583;-60
2021/01/31 07:04:28;;;;;;;;;;;23.90;45.50;;;;;;1558106;74;738;-60
2021/01/31 07:06:46;;;;;;;;;;;23.90;45.50;;;;;;1543222;74;1004;-61
2021/01/31 07:08:50;;;;;;;;;;;23.90;45.40;;;;;;1556788;74;1942;-60
2021/01/31 07:10:53;;;;;;;;;;;23.90;45.40;;;;;;1562010;75;723;-60
2021/01/31 07:13:12;;;;;;;;;;;24.00;45.40;;;;;;1563298;74;760;-61
2021/01/31 07:15:14;;;;;;;;;;;24.00;45.50;;;;;;1564017;74;1771;-60
2021/01/31 07:17:27;;;;;;;;;;;24.00;45.50;;;;;;1562016;74;748;-60
2021/01/31 07:19:30;;;;;;;;;;;24.00;45.40;;;;;;1563082;74;774;-60
2021/01/31 07:21:34;;;;;;;;;;;24.00;45.30;;;;;;1562482;74;775;-61
2021/01/31 07:23:36;;;;;;;;;;;24.00;45.30;;;;;;1554867;75;964;-61
2021/01/31 07:25:42;;;;;;;;;;;24.00;45.30;;;;;;1552846;75;733;-60
2021/01/31 07:27:46;;;;;;;;;;;24.00;45.30;;;;;;1554620;75;1199;-59
2021/01/31 07:30:06;;;;;;;;;;;24.10;45.30;;;;;;1549359;75;1917;-60
2021/01/31 07:32:09;;;;;;;;;;;24.10;45.20;;;;;;1551940;75;717;-59
2021/01/31 07:34:15;;;;;;;;;;;24.00;45.10;;;;;;1553829;75;691;-60
2021/01/31 07:36:18;;;;;;;;;;;24.10;45.20;;;;;;1542686;75;1465;-60
2021/01/31 07:38:21;;;;;;;;;;;24.10;45.20;;;;;;1550526;75;1125;-60
2021/01/31 07:40:23;;;;;;;;;;;24.10;45.20;;;;;;1553107;75;738;-60
2021/01/31 07:42:25;;;;;;;;;;;24.10;45.10;;;;;;1555328;75;712;-60
2021/01/31 07:44:31;;;;;;;;;;;24.10;45.20;;;;;;1553087;75;663;-61
2021/01/31 07:46:33;;;;;;;;;;;24.00;45.10;;;;;;1549319;75;755;-60
2021/01/31 07:48:45;;;;;;;;;;;24.00;45.30;;;;;;1551112;75;1935;-59
2021/01/31 07:50:47;;;;;;;;;;;24.00;45.50;;;;;;1562932;75;763;-62
2021/01/31 07:52:52;;;;;;;;;;;24.00;45.50;;;;;;1562505;75;656;-60
2021/01/31 07:55:09;;;;;;;;;;;24.00;45.70;;;;;;1552984;75;1620;-60
2021/01/31 07:57:24;;;;;;;;;;;24.00;45.60;;;;;;1551613;75;695;-60
2021/01/31 07:59:27;;;;;;;;;;;24.00;45.50;;;;;;1547885;75;793;-60
2021/01/31 08:01:40;;;;;;;;;;;24.00;46.00;;;;;;1553104;75;779;-60
2021/01/31 08:03:42;;;;;;;;;;;24.00;45.90;;;;;;1546310;75;708;-61
2021/01/31 08:05:51;;;;;;;;;;;24.00;46.00;;;;;;1544974;76;769;-61
2021/01/31 08:07:57;;;;;;;;;;;24.00;46.20;;;;;;1545717;75;1120;-60
2021/01/31 08:09:59;;;;;;;;;;;24.00;46.40;;;;;;1546256;75;1939;-60
2021/01/31 08:12:04;;;;;;;;;;;24.00;46.50;;;;;;1552925;75;741;-60
2021/01/31 08:14:08;;;;;;;;;;;24.00;46.60;;;;;;1534803;75;727;-60
2021/01/31 08:16:28;;;;;;;;;;;23.90;46.90;;;;;;1541343;76;680;-59
2021/01/31 08:18:30;;;;;;;;;;;24.00;46.20;;;;;;1551913;75;1178;-59
2021/01/31 08:20:33;;;;;;;;;;;24.00;46.20;;;;;;1550328;75;704;-59
2021/01/31 08:22:35;;;;;;;;;;;23.90;46.10;;;;;;1552908;75;1125;-59
2021/01/31 08:24:56;;;;;;;;;;;23.90;46.10;;;;;;1548137;75;817;-60
2021/01/31 08:26:57;;;;;;;;;;;24.00;46.00;;;;;;1544025;75;633;-59
2021/01/31 08:28:59;;;;;;;;;;;24.00;45.70;;;;;;1552547;75;1936;-60
2021/01/31 08:31:03;;;;;;;;;;;24.10;45.70;;;;;;1552659;75;736;-60
2021/01/31 08:33:06;;;;;;;;;;;24.20;45.40;;;;;;1548069;75;716;-60
2021/01/31 08:35:13;;;;;;;;;;;24.20;45.30;;;;;;1550141;75;762;-60
2021/01/31 08:37:24;;;;;;;;;;;24.10;45.30;;;;;;1571014;75;1711;-59
2021/01/31 08:39:27;;;;;;;;;;;24.10;45.40;;;;;;1551098;75;723;-61
2021/01/31 08:41:39;;;;;;;;;;;24.00;45.30;;;;;;1549118;75;1678;-59
2021/01/31 08:43:44;;;;;;;;;;;24.00;45.40;;;;;;1550861;75;691;-60
2021/01/31 08:45:46;;;;;;;;;;;23.90;45.40;;;;;;1550117;75;776;-60
2021/01/31 08:47:48;;;;;;;;;;;23.90;45.50;;;;;;1552622;75;1137;-60
2021/01/31 08:49:56;;;;;;;;;;;23.90;45.60;;;;;;1550643;75;1932;-60
2021/01/31 08:52:06;;;;;;;;;;;23.90;45.70;;;;;;1553878;75;731;-60
2021/01/31 08:54:09;;;;;;;;;;;23.90;45.60;;;;;;1552606;75;683;-60
2021/01/31 08:56:16;;;;;;;;;;;23.90;45.70;;;;;;1552960;75;644;-60
2021/01/31 08:58:18;;;;;;;;;;;23.90;45.70;;;;;;1551154;75;1681;-60
2021/01/31 09:00:20;;;;;;;;;;;23.80;45.70;;;;;;1553324;75;690;-60
2021/01/31 09:02:24;;;;;;;;;;;23.90;45.80;;;;;;1555230;75;812;-60
2021/01/31 09:04:26;;;;;;;;;;;23.90;45.70;;;;;;1551396;75;1669;-61
2021/01/31 09:06:30;;;;;;;;;;;23.90;45.80;;;;;;1552870;75;946;-60
2021/01/31 09:08:32;;;;;;;;;;;23.90;45.80;;;;;;1552747;75;1707;-60
2021/01/31 09:10:44;;;;;;;;;;;23.90;45.80;;;;;;1552952;76;1943;-60
2021/01/31 09:12:46;;;;;;;;;;;23.80;45.70;;;;;;1550641;75;677;-60
2021/01/31 09:14:48;;;;;;;;;;;23.90;45.70;;;;;;1552899;76;745;-60
2021/01/31 09:16:49;;;;;;;;;;;23.90;45.70;;;;;;1552398;75;746;-60
2021/01/31 09:19:08;;;;;;;;;;;23.90;45.70;;;;;;1552963;75;1198;-61
2021/01/31 09:21:29;;;;;;;;;;;23.90;45.70;;;;;;1547403;75;719;-60
2021/01/31 09:23:33;;;;;;;;;;;23.90;45.70;;;;;;1549764;75;1124;-61
2021/01/31 09:25:36;;;;;;;;;;;23.80;45.70;;;;;;1552639;75;769;-61
2021/01/31 09:27:40;;;;;;;;;;;23.90;45.80;;;;;;1551778;75;1451;-61
2021/01/31 09:29:41;;;;;;;;;;;23.80;45.70;;;;;;1552487;75;1931;-60
2021/01/31 09:31:43;;;;;;;;;;;23.90;45.70;;;;;;1548243;75;761;-60
2021/01/31 09:33:45;;;;;;;;;;;23.90;45.80;;;;;;1552864;75;769;-60
2021/01/31 09:35:47;;;;;;;;;;;23.80;45.80;;;;;;1552890;75;646;-61
2021/01/31 09:37:49;;;;;;;;;;;23.90;46.00;;;;;;1552413;75;1108;-61
2021/01/31 09:39:51;;;;;;;;;;;23.80;45.80;;;;;;1552877;75;687;-61
2021/01/31 09:41:53;;;;;;;;;;;23.90;45.90;;;;;;1547805;75;605;-61
2021/01/31 09:43:56;;;;;;;;;;;23.80;45.80;;;;;;1548729;75;745;-61
2021/01/31 09:45:58;;;;;;;;;;;23.90;45.90;;;;;;1552295;75;711;-61
2021/01/31 09:48:00;;;;;;;;;;;23.80;45.80;;;;;;1551324;75;1130;-61
2021/01/31 09:50:06;;;;;;;;;;;23.70;45.80;;;;;;1553265;75;1934;-61
2021/01/31 09:52:09;;;;;;;;;;;23.80;45.90;;;;;;1551443;75;795;-62
2021/01/31 09:54:21;;;;;;;;;;;23.80;45.90;;;;;;1552790;75;749;-61
2021/01/31 09:56:39;;;;;;;;;;;23.80;45.90;;;;;;1554448;75;686;-61
2021/01/31 09:58:44;;;;;;;;;;;23.80;46.00;;;;;;1551239;75;1147;-61
2021/01/31 10:00:46;;;;;;;;;;;23.80;46.00;;;;;;1552380;75;944;-61
2021/01/31 10:02:48;;;;;;;;;;;23.80;46.10;;;;;;1552141;75;726;-61
2021/01/31 10:05:00;;;;;;;;;;;23.80;46.00;;;;;;1553256;75;656;-62
2021/01/31 10:07:11;;;;;;;;;;;23.80;46.00;;;;;;1547909;75;695;-61
2021/01/31 10:09:13;;;;;;;;;;;23.70;46.10;;;;;;1551933;75;1943;-60
2021/01/31 10:11:26;;;;;;;;;;;23.80;46.20;;;;;;1555444;75;732;-61
2021/01/31 10:13:37;;;;;;;;;;;23.90;46.10;;;;;;1553032;75;720;-60
2021/01/31 10:15:39;;;;;;;;;;;23.80;46.00;;;;;;1550221;75;1350;-60
2021/01/31 10:17:42;;;;;;;;;;;23.80;46.00;;;;;;1549595;75;1177;-63
2021/01/31 10:19:44;;;;;;;;;;;23.80;45.70;;;;;;1545190;75;708;-62
2021/01/31 10:21:50;;;;;;;;;;;23.90;44.70;;;;;;1552836;75;764;-62
2021/01/31 10:23:53;;;;;;;;;;;24.00;43.50;;;;;;1554770;75;1086;-62
2021/01/31 10:26:02;;;;;;;;;;;24.00;42.40;;;;;;1557133;75;1339;-62
2021/01/31 10:28:04;;;;;;;;;;;24.10;41.80;;;;;;1567083;74;1184;-62
2021/01/31 10:30:11;;;;;;;;;;;24.00;41.00;;;;;;1570800;74;1924;-62
2021/01/31 10:32:23;;;;;;;;;;;24.00;40.30;;;;;;1570811;74;1691;-62
2021/01/31 10:34:38;;;;;;;;;;;24.00;39.90;;;;;;1568325;74;756;-62
2021/01/31 10:36:41;;;;;;;;;;;24.00;39.40;;;;;;1558260;75;781;-62
2021/01/31 10:38:45;;;;;;;;;;;23.90;38.90;;;;;;1558026;74;1157;-62
2021/01/31 10:40:47;;;;;;;;;;;23.90;38.40;;;;;;1555376;75;728;-62
2021/01/31 10:42:49;;;;;;;;;;;23.90;37.90;;;;;;1550068;74;810;-62
2021/01/31 10:44:51;;;;;;;;;;;23.80;37.70;;;;;;1549215;74;788;-62
2021/01/31 10:46:53;;;;;;;;;;;23.90;37.40;;;;;;1557326;74;690;-62
2021/01/31 10:48:55;;;;;;;;;;;23.70;37.10;;;;;;1546014;74;1179;-62
2021/01/31 10:50:57;;;;;;;;;;;23.80;36.60;;;;;;1562730;74;1942;-62
2021/01/31 10:52:59;;;;;;;;;;;23.80;36.40;;;;;;1548588;74;710;-62
2021/01/31 10:55:00;;;;;;;;;;;23.70;36.30;;;;;;1549508;74;751;-62
2021/01/31 10:57:02;;;;;;;;;;;23.60;36.00;;;;;;1552623;75;604;-62
2021/01/31 10:59:05;;;;;;;;;;;23.60;35.80;;;;;;1547096;74;1122;-62
2021/01/31 11:01:07;;;;;;;;;;;23.60;35.70;;;;;;1555440;74;736;-62
2021/01/31 11:03:09;;;;;;;;;;;23.50;35.50;;;;;;1556618;74;657;-62
2021/01/31 11:05:11;;;;;;;;;;;23.60;35.40;;;;;;1555808;75;726;-62
2021/01/31 11:07:13;;;;;;;;;;;23.50;35.20;;;;;;1555204;74;741;-62
2021/01/31 11:09:16;;;;;;;;;;;23.50;35.10;;;;;;1555236;74;1109;-62
2021/01/31 11:11:18;;;;;;;;;;;23.50;34.90;;;;;;1553062;74;1911;-62
2021/01/31 11:13:20;;;;;;;;;;;23.50;34.70;;;;;;1556255;74;691;-62
2021/01/31 11:15:22;;;;;;;;;;;23.50;34.60;;;;;;1563252;74;742;-62
2021/01/31 11:17:24;;;;;;;;;;;23.40;34.40;;;;;;1567153;74;1144;-62
2021/01/31 11:19:26;;;;;;;;;;;23.50;34.40;;;;;;1563807;75;611;-62
2021/01/31 11:21:28;;;;;;;;;;;23.40;34.30;;;;;;1567786;74;652;-62
2021/01/31 11:23:30;;;;;;;;;;;23.40;34.20;;;;;;1567829;75;763;-62
2021/01/31 11:25:31;;;;;;;;;;;23.30;34.30;;;;;;1559297;74;981;-62
2021/01/31 11:27:33;;;;;;;;;;;23.30;34.30;;;;;;1551776;75;1146;-62
2021/01/31 11:29:35;;;;;;;;;;;23.30;34.20;;;;;;1551539;75;1931;-62
2021/01/31 11:31:37;;;;;;;;;;;23.20;34.10;;;;;;1553089;75;745;-62
2021/01/31 11:33:39;;;;;;;;;;;23.20;34.10;;;;;;1551772;75;787;-62
2021/01/31 11:35:41;;;;;;;;;;;23.20;34.00;;;;;;1553047;75;624;-62
2021/01/31 11:37:43;;;;;;;;;;;23.20;34.10;;;;;;1552503;75;1144;-62
2021/01/31 11:39:45;;;;;;;;;;;23.20;34.10;;;;;;1548399;75;737;-62
2021/01/31 11:41:47;;;;;;;;;;;23.20;34.10;;;;;;1549091;75;702;-62
2021/01/31 11:43:48;;;;;;;;;;;23.10;34.10;;;;;;1540851;76;744;-62
2021/01/31 11:45:51;;;;;;;;;;;23.10;33.90;;;;;;1552596;75;731;-62
2021/01/31 11:47:52;;;;;;;;;;;23.10;33.90;;;;;;1552939;75;1180;-62
2021/01/31 11:49:54;;;;;;;;;;;23.10;33.90;;;;;;1552700;75;1931;-62
2021/01/31 11:51:56;;;;;;;;;;;23.00;33.70;;;;;;1551845;75;716;-62
2021/01/31 11:53:58;;;;;;;;;;;23.10;34.00;;;;;;1552819;75;696;-62
2021/01/31 11:56:00;;;;;;;;;;;23.10;34.00;;;;;;1552728;75;814;-62
2021/01/31 11:58:02;;;;;;;;;;;23.00;33.90;;;;;;1552340;75;1136;-62
2021/01/31 12:00:05;;;;;;;;;;;23.00;34.00;;;;;;1552444;75;782;-62
2021/01/31 12:02:07;;;;;;;;;;;23.00;34.00;;;;;;1554448;75;708;-62
2021/01/31 12:04:08;;;;;;;;;;;23.00;34.00;;;;;;1552828;75;700;-62
2021/01/31 12:06:10;;;;;;;;;;;23.00;34.20;;;;;;1552895;75;696;-62
2021/01/31 12:08:12;;;;;;;;;;;23.00;34.30;;;;;;1553324;75;1555;-62
2021/01/31 12:10:14;;;;;;;;;;;23.00;34.20;;;;;;1545047;75;1933;-62
2021/01/31 12:12:16;;;;;;;;;;;22.90;34.20;;;;;;1547822;75;797;-60
2021/01/31 12:14:18;;;;;;;;;;;22.90;34.20;;;;;;1547889;75;724;-60
2021/01/31 12:16:20;;;;;;;;;;;22.90;34.60;;;;;;1564439;75;799;-59
2021/01/31 12:18:22;;;;;;;;;;;22.90;34.70;;;;;;1553911;75;1189;-60
2021/01/31 12:20:23;;;;;;;;;;;22.90;34.80;;;;;;1553345;75;699;-60
2021/01/31 12:22:25;;;;;;;;;;;22.80;34.80;;;;;;1551150;75;767;-60